Terminal Aerodrome Forecast
Issued by NWS

Home | Current Version | Previous Version | Text Only | Print | Product List | Glossary Off
Versions: 1 2 3 4 5 6 7 8 9 10 11 12 13 14 15 16 17 18 19 20 21 22 23 24 25 26 27 28 29 30 31 32 33 34 35 36 37

000
FTUS43 KLOT 171400 AAA
TAFORD
TAF AMD
KORD 171400Z 1714/1818 05007KT 5SM BR OVC005
     FM171600 05008KT P6SM SCT006 OVC010
     FM171800 05010KT P6SM SCT015 BKN020
     FM172000 04010KT P6SM SCT030 SCT250
     FM180100 03008KT P6SM FEW030
     FM180400 04006KT 4SM HZ SCT025 BKN080
     FM180800 VRB03KT 3SM BR BKN015
     FM181500 06007KT P6SM SCT025 BKN080=

USA.gov is the U.S. government's official web portal to all federal, state and local government web resources and services.